createdAt,value
2019-02-09T00:01:49.314Z,0.00
2019-02-09T00:02:49.212Z,0.00
2019-02-09T00:04:41.974Z,0.00
2019-02-09T00:05:41.922Z,0.00
2019-02-09T00:07:34.724Z,0.00
2019-02-09T00:08:34.683Z,0.00
2019-02-09T00:10:27.455Z,0.00
2019-02-09T00:11:27.391Z,0.00
2019-02-09T00:13:20.138Z,0.00
2019-02-09T00:14:20.065Z,0.00
2019-02-09T00:16:12.882Z,0.00
2019-02-09T00:17:12.804Z,0.00
2019-02-09T00:19:05.937Z,0.00
2019-02-09T00:20:05.865Z,0.00
2019-02-09T00:21:58.683Z,0.00
2019-02-09T00:22:58.600Z,0.00
2019-02-09T00:24:51.386Z,0.00
2019-02-09T00:25:51.314Z,0.00
2019-02-09T00:27:44.091Z,0.00
2019-02-09T00:28:44.008Z,0.00
2019-02-09T00:30:36.795Z,0.00
2019-02-09T00:31:36.745Z,0.00
2019-02-09T00:33:29.473Z,0.00
2019-02-09T00:34:29.397Z,0.00
2019-02-09T00:36:22.192Z,0.00
2019-02-09T00:37:22.101Z,0.00
2019-02-09T00:39:14.891Z,0.00
2019-02-09T00:40:14.813Z,0.00
2019-02-09T00:42:07.597Z,0.00
2019-02-09T00:43:07.512Z,0.00
2019-02-09T00:45:00.287Z,0.00
2019-02-09T00:46:00.213Z,0.00
2019-02-09T00:47:53.009Z,0.00
2019-02-09T00:48:52.914Z,0.00
2019-02-09T00:50:45.715Z,0.00
2019-02-09T00:51:45.626Z,0.00
2019-02-09T00:53:38.410Z,0.00
2019-02-09T00:54:38.338Z,0.00
2019-02-09T00:56:31.104Z,0.00
2019-02-09T00:57:31.022Z,0.00
2019-02-09T00:59:23.783Z,0.00
2019-02-09T01:00:23.708Z,0.00
2019-02-09T01:02:16.488Z,0.00
2019-02-09T01:03:16.395Z,0.00
2019-02-09T01:05:09.165Z,0.00
2019-02-09T01:06:09.132Z,0.00
2019-02-09T01:08:01.932Z,0.00
2019-02-09T01:09:01.797Z,0.00
2019-02-09T01:10:54.554Z,0.00
2019-02-09T01:11:54.517Z,0.00
2019-02-09T01:13:47.291Z,0.00
2019-02-09T01:14:47.218Z,0.00
2019-02-09T01:16:39.988Z,0.00
2019-02-09T01:17:39.908Z,0.00
2019-02-09T01:19:32.663Z,0.00
2019-02-09T01:20:32.588Z,0.00
2019-02-09T01:22:25.376Z,0.00
2019-02-09T01:23:25.280Z,0.00
2019-02-09T01:25:18.043Z,0.00
2019-02-09T01:26:17.972Z,0.00
2019-02-09T01:28:10.748Z,0.00
2019-02-09T01:29:10.660Z,0.00
2019-02-09T01:31:03.446Z,0.00
2019-02-09T01:32:03.354Z,0.00
2019-02-09T01:33:56.178Z,0.00
2019-02-09T01:34:56.034Z,0.00
2019-02-09T01:36:48.808Z,0.00
2019-02-09T01:37:48.724Z,0.00
2019-02-09T01:39:41.501Z,0.00
2019-02-09T01:40:41.425Z,0.00
2019-02-09T01:42:34.194Z,0.00
2019-02-09T01:43:34.110Z,0.00
2019-02-09T01:45:26.885Z,0.00
2019-02-09T01:46:26.825Z,0.00
2019-02-09T01:48:19.648Z,0.00
2019-02-09T01:49:19.563Z,0.00
2019-02-09T01:51:12.339Z,0.00
2019-02-09T01:52:12.249Z,0.00
2019-02-09T01:54:05.004Z,0.00
2019-02-09T01:55:05.022Z,0.00
2019-02-09T01:57:02.842Z,0.00
2019-02-09T01:58:02.763Z,0.00
2019-02-09T01:59:55.602Z,0.00
2019-02-09T02:00:55.544Z,0.00
2019-02-09T02:02:48.380Z,0.00
2019-02-09T02:03:48.233Z,0.00
2019-02-09T02:05:41.037Z,0.00
2019-02-09T02:06:40.952Z,0.00
2019-02-09T02:08:33.734Z,0.00
2019-02-09T02:09:33.668Z,0.00
2019-02-09T02:11:26.477Z,0.00
2019-02-09T02:12:26.331Z,0.00
2019-02-09T02:14:19.098Z,0.00
2019-02-09T02:15:19.036Z,0.00
2019-02-09T02:17:11.793Z,0.00
2019-02-09T02:18:11.717Z,0.00
2019-02-09T02:20:04.484Z,0.00
2019-02-09T02:21:04.393Z,0.00
2019-02-09T02:22:57.191Z,0.00
2019-02-09T02:23:57.109Z,0.00
2019-02-09T02:25:49.875Z,0.00
2019-02-09T02:26:49.797Z,0.00
2019-02-09T02:28:42.576Z,0.00
2019-02-09T02:29:42.498Z,0.00
2019-02-09T02:31:35.259Z,0.00
2019-02-09T02:32:35.177Z,0.00
2019-02-09T02:34:27.975Z,0.00
2019-02-09T02:35:27.899Z,0.00
2019-02-09T02:37:20.685Z,0.00
2019-02-09T02:38:20.579Z,0.00
2019-02-09T02:40:13.354Z,0.00
2019-02-09T02:41:13.284Z,0.00
2019-02-09T02:43:06.073Z,0.00
2019-02-09T02:44:05.987Z,0.00
2019-02-09T02:45:58.777Z,0.00
2019-02-09T02:46:58.696Z,0.00
2019-02-09T02:48:51.486Z,0.00
2019-02-09T02:49:51.388Z,0.00
2019-02-09T02:51:44.183Z,0.00
2019-02-09T02:52:44.094Z,0.00
2019-02-09T02:54:36.858Z,0.00
2019-02-09T02:55:36.793Z,0.00
2019-02-09T02:57:29.613Z,0.00
2019-02-09T02:58:29.539Z,0.00
2019-02-09T03:00:31.041Z,0.00
2019-02-09T03:01:22.201Z,0.00
2019-02-09T03:03:14.978Z,0.00
2019-02-09T03:04:14.898Z,0.00
2019-02-09T03:06:07.655Z,0.00
2019-02-09T03:07:07.582Z,0.00
2019-02-09T03:09:00.358Z,0.00
2019-02-09T03:10:00.285Z,0.00
2019-02-09T03:11:53.049Z,0.00
2019-02-09T03:12:52.966Z,0.00
2019-02-09T03:14:45.770Z,0.00
2019-02-09T03:15:45.695Z,0.00
2019-02-09T03:17:38.463Z,0.00
2019-02-09T03:18:38.375Z,0.00
2019-02-09T03:20:31.134Z,0.00
2019-02-09T03:21:31.064Z,0.00
2019-02-09T03:23:23.859Z,0.00
2019-02-09T03:24:23.772Z,0.00
2019-02-09T03:26:16.533Z,0.00
2019-02-09T03:27:16.465Z,0.00
2019-02-09T03:29:09.243Z,0.00
2019-02-09T03:30:09.170Z,0.00
2019-02-09T03:32:01.937Z,0.00
2019-02-09T03:33:01.929Z,0.00
2019-02-09T03:34:54.612Z,0.00
2019-02-09T03:35:54.541Z,0.00
2019-02-09T03:37:47.360Z,0.00
2019-02-09T03:38:47.242Z,0.00
2019-02-09T03:40:40.000Z,0.00
2019-02-09T03:41:39.914Z,0.00
2019-02-09T03:43:32.704Z,0.00
2019-02-09T03:44:32.615Z,0.00
2019-02-09T03:46:25.382Z,0.00
2019-02-09T03:47:25.314Z,0.00
2019-02-09T03:49:18.080Z,0.00
2019-02-09T03:50:18.000Z,0.00
2019-02-09T03:52:10.780Z,0.00
2019-02-09T03:53:10.696Z,0.00
2019-02-09T03:55:03.466Z,0.00
2019-02-09T03:56:03.398Z,0.00
2019-02-09T03:57:56.169Z,0.00
2019-02-09T03:58:56.088Z,0.00
2019-02-09T04:00:55.143Z,0.00
2019-02-09T04:01:48.797Z,0.00
2019-02-09T04:03:41.568Z,0.00
2019-02-09T04:04:41.482Z,0.00
2019-02-09T04:06:34.257Z,0.00
2019-02-09T04:07:34.181Z,0.00
2019-02-09T04:09:26.952Z,0.00
2019-02-09T04:10:26.864Z,0.00
2019-02-09T04:12:19.631Z,0.00
2019-02-09T04:13:19.548Z,0.00
2019-02-09T04:15:12.310Z,0.00
2019-02-09T04:16:12.237Z,0.00
2019-02-09T04:18:05.018Z,0.00
2019-02-09T04:19:04.963Z,0.00
2019-02-09T04:20:57.698Z,0.00
2019-02-09T04:21:57.626Z,0.00
2019-02-09T04:23:50.400Z,0.00
2019-02-09T04:24:50.322Z,0.00
2019-02-09T04:26:43.124Z,0.00
2019-02-09T04:27:43.052Z,0.00
2019-02-09T04:29:35.827Z,0.00
2019-02-09T04:30:35.745Z,0.00
2019-02-09T04:32:28.542Z,0.00
2019-02-09T04:33:28.461Z,0.00
2019-02-09T04:35:21.213Z,0.00
2019-02-09T04:36:21.142Z,0.00
2019-02-09T04:38:13.943Z,0.00
2019-02-09T04:39:13.839Z,0.00
2019-02-09T04:41:06.627Z,0.00
2019-02-09T04:42:06.552Z,0.00
2019-02-09T04:43:59.320Z,0.00
2019-02-09T04:44:59.250Z,0.00
2019-02-09T04:46:51.991Z,0.00
2019-02-09T04:47:51.930Z,0.00
2019-02-09T04:49:44.695Z,0.00
2019-02-09T04:50:44.622Z,0.00
2019-02-09T04:52:37.382Z,0.00
2019-02-09T04:53:37.305Z,0.00
2019-02-09T04:55:30.081Z,0.00
2019-02-09T04:56:29.992Z,0.00
2019-02-09T04:58:22.836Z,0.00
2019-02-09T04:59:22.689Z,0.00
2019-02-09T05:01:15.465Z,0.00
2019-02-09T05:02:15.393Z,0.00
2019-02-09T05:04:08.247Z,0.00
2019-02-09T05:05:08.076Z,0.00
2019-02-09T05:07:00.841Z,0.00
2019-02-09T05:08:00.773Z,0.00
2019-02-09T05:09:53.584Z,0.00
2019-02-09T05:10:53.499Z,0.00
2019-02-09T05:12:46.280Z,0.00
2019-02-09T05:13:46.192Z,0.00
2019-02-09T05:15:38.981Z,0.00
2019-02-09T05:16:38.906Z,0.00
2019-02-09T05:18:31.669Z,0.00
2019-02-09T05:19:31.590Z,0.00
2019-02-09T05:21:24.350Z,0.00
2019-02-09T05:22:24.281Z,0.00
2019-02-09T05:24:17.046Z,0.00
2019-02-09T05:25:16.965Z,0.00
2019-02-09T05:27:09.752Z,0.00
2019-02-09T05:28:09.683Z,0.00
2019-02-09T05:30:02.472Z,0.00
2019-02-09T05:31:02.385Z,0.00
2019-02-09T05:32:55.162Z,0.00
2019-02-09T05:33:55.119Z,0.00
2019-02-09T05:35:47.862Z,0.00
2019-02-09T05:36:47.787Z,0.00
2019-02-09T05:38:40.554Z,0.00
2019-02-09T05:39:40.484Z,0.00
2019-02-09T05:41:33.243Z,0.00
2019-02-09T05:42:33.171Z,0.00
2019-02-09T05:44:25.951Z,0.00
2019-02-09T05:45:25.866Z,0.00
2019-02-09T05:47:18.648Z,0.00
2019-02-09T05:48:18.575Z,0.00
2019-02-09T05:50:11.354Z,0.00
2019-02-09T05:51:11.274Z,0.00
2019-02-09T05:53:04.048Z,0.00
2019-02-09T05:54:03.965Z,0.00
2019-02-09T05:55:56.741Z,0.00
2019-02-09T05:56:56.670Z,0.00
2019-02-09T05:58:49.486Z,0.00
2019-02-09T05:59:49.378Z,0.00
2019-02-09T06:01:42.187Z,0.00
2019-02-09T06:02:42.061Z,0.00
2019-02-09T06:04:34.858Z,0.00
2019-02-09T06:05:34.773Z,0.00
2019-02-09T06:07:27.577Z,0.00
2019-02-09T06:08:27.505Z,0.00
2019-02-09T06:10:20.294Z,0.00
2019-02-09T06:11:20.203Z,0.00
2019-02-09T06:13:12.986Z,0.00
2019-02-09T06:14:12.917Z,0.00
2019-02-09T06:16:05.684Z,0.00
2019-02-09T06:17:05.619Z,0.00
2019-02-09T06:18:58.417Z,0.00
2019-02-09T06:19:58.293Z,0.00
2019-02-09T06:21:51.253Z,0.00
2019-02-09T06:22:51.076Z,0.00
2019-02-09T06:24:43.859Z,0.00
2019-02-09T06:25:43.773Z,0.00
2019-02-09T06:27:36.617Z,0.00
2019-02-09T06:28:36.471Z,0.00
2019-02-09T06:30:29.260Z,0.00
2019-02-09T06:31:29.170Z,0.00
2019-02-09T06:33:21.994Z,0.00
2019-02-09T06:34:21.873Z,0.00
2019-02-09T06:36:14.644Z,0.00
2019-02-09T06:37:14.569Z,0.00
2019-02-09T06:39:07.358Z,0.00
2019-02-09T06:40:07.282Z,0.00
2019-02-09T06:42:00.046Z,0.00
2019-02-09T06:42:59.971Z,0.00
2019-02-09T06:44:52.776Z,0.00
2019-02-09T06:45:52.676Z,0.00
2019-02-09T06:47:45.510Z,0.00
2019-02-09T06:48:45.428Z,0.00
2019-02-09T06:50:38.239Z,0.00
2019-02-09T06:51:38.161Z,0.00
2019-02-09T06:53:30.960Z,0.00
2019-02-09T06:54:30.862Z,0.00
2019-02-09T06:56:23.619Z,5.63
2019-02-09T06:57:23.547Z,5.63
2019-02-09T06:59:16.344Z,11.25
2019-02-09T07:00:16.256Z,11.25
2019-02-09T07:02:09.016Z,11.25
2019-02-09T07:03:08.960Z,5.63
2019-02-09T07:05:01.722Z,5.63
2019-02-09T07:06:01.624Z,5.63
2019-02-09T07:07:54.410Z,5.63
2019-02-09T07:08:54.326Z,5.63
2019-02-09T07:10:47.111Z,11.25
2019-02-09T07:11:47.027Z,11.25
2019-02-09T07:13:40.796Z,11.25
2019-02-09T07:14:39.712Z,11.25
2019-02-09T07:16:32.496Z,11.25
2019-02-09T07:17:32.405Z,11.25
2019-02-09T07:19:26.162Z,11.25
2019-02-09T07:20:25.107Z,11.25
2019-02-09T07:22:17.864Z,11.25
2019-02-09T07:23:17.792Z,11.25
2019-02-09T07:25:10.569Z,11.25
2019-02-09T07:26:10.489Z,11.25
2019-02-09T07:28:03.240Z,5.63
2019-02-09T07:29:03.168Z,5.63
2019-02-09T07:30:55.964Z,5.63
2019-02-09T07:31:56.614Z,5.63
2019-02-09T07:33:48.727Z,11.25
2019-02-09T07:34:48.625Z,11.25
2019-02-09T07:36:41.384Z,11.25
2019-02-09T07:37:41.305Z,11.25
2019-02-09T07:39:34.076Z,16.88
2019-02-09T07:40:33.997Z,16.88
2019-02-09T07:42:26.764Z,16.88
2019-02-09T07:43:26.693Z,16.88
2019-02-09T07:45:19.462Z,16.88
2019-02-09T07:46:19.387Z,16.88
2019-02-09T07:48:12.222Z,11.25
2019-02-09T07:49:12.143Z,11.25
2019-02-09T07:51:04.917Z,11.25
2019-02-09T07:52:04.844Z,5.63
2019-02-09T07:53:57.614Z,5.63
2019-02-09T07:54:57.521Z,11.25
2019-02-09T07:56:50.297Z,11.25
2019-02-09T07:57:50.221Z,11.25
2019-02-09T07:59:43.017Z,11.25
2019-02-09T08:00:42.921Z,11.25
2019-02-09T08:02:35.678Z,16.88
2019-02-09T08:03:35.604Z,16.88
2019-02-09T08:05:28.395Z,22.50
2019-02-09T08:06:28.303Z,22.50
2019-02-09T08:08:21.074Z,22.50
2019-02-09T08:09:20.997Z,16.88
2019-02-09T08:11:13.775Z,11.25
2019-02-09T08:12:13.699Z,11.25
2019-02-09T08:14:06.447Z,5.63
2019-02-09T08:15:06.380Z,5.63
2019-02-09T08:16:59.213Z,11.25
2019-02-09T08:17:59.125Z,16.88
2019-02-09T08:19:51.897Z,22.50
2019-02-09T08:20:51.819Z,22.50
2019-02-09T08:22:44.576Z,33.75
2019-02-09T08:23:44.507Z,39.38
2019-02-09T08:25:37.284Z,61.88
2019-02-09T08:26:37.195Z,61.88
2019-02-09T08:28:30.106Z,78.75
2019-02-09T08:29:30.047Z,95.63
2019-02-09T08:31:22.821Z,106.88
2019-02-09T08:32:22.736Z,106.88
2019-02-09T08:34:15.489Z,90.00
2019-02-09T08:35:15.421Z,90.00
2019-02-09T08:37:08.205Z,101.25
2019-02-09T08:38:08.115Z,118.13
2019-02-09T08:40:00.913Z,135.00
2019-02-09T08:41:00.835Z,129.38
2019-02-09T08:42:53.635Z,118.13
2019-02-09T08:43:53.518Z,106.88
2019-02-09T08:45:46.302Z,106.88
2019-02-09T08:46:46.210Z,106.88
2019-02-09T08:48:39.095Z,101.25
2019-02-09T08:49:39.010Z,101.25
2019-02-09T08:51:31.782Z,95.63
2019-02-09T08:52:31.700Z,84.38
2019-02-09T08:54:24.477Z,73.13
2019-02-09T08:55:24.406Z,73.13
2019-02-09T08:57:17.198Z,84.38
2019-02-09T08:58:17.106Z,90.00
2019-02-09T09:00:09.899Z,101.25
2019-02-09T09:01:09.802Z,112.50
2019-02-09T09:03:02.590Z,129.38
2019-02-09T09:04:02.513Z,146.25
2019-02-09T09:05:55.283Z,180.00
2019-02-09T09:06:55.201Z,191.25
2019-02-09T09:08:47.952Z,241.88
2019-02-09T09:09:47.888Z,303.75
2019-02-09T09:11:40.670Z,275.63
2019-02-09T09:12:40.582Z,455.63
2019-02-09T09:14:33.343Z,686.25
2019-02-09T09:15:33.273Z,686.25
2019-02-09T09:17:26.060Z,1029.38
2019-02-09T09:18:25.991Z,1074.38
2019-02-09T09:20:18.750Z,1158.75
2019-02-09T09:21:18.669Z,1147.50
2019-02-09T09:23:11.492Z,1158.75
2019-02-09T09:24:11.416Z,1164.38
2019-02-09T09:26:04.211Z,1186.88
2019-02-09T09:27:04.160Z,1181.25
2019-02-09T09:28:56.897Z,1265.63
2019-02-09T09:29:56.846Z,1276.88
2019-02-09T09:31:49.632Z,1383.75
2019-02-09T09:32:49.541Z,1507.50
2019-02-09T09:34:42.318Z,1912.50
2019-02-09T09:35:42.263Z,2036.25
2019-02-09T09:37:35.046Z,1530.00
2019-02-09T09:38:34.971Z,1687.50
2019-02-09T09:40:27.760Z,1755.00
2019-02-09T09:41:27.676Z,1513.13
2019-02-09T09:43:20.459Z,1755.00
2019-02-09T09:44:20.398Z,950.63
2019-02-09T09:46:13.278Z,1023.75
2019-02-09T09:47:13.207Z,646.88
2019-02-09T09:49:05.996Z,652.50
2019-02-09T09:50:05.923Z,843.75
2019-02-09T09:51:58.721Z,753.75
2019-02-09T09:52:58.654Z,1046.25
2019-02-09T09:54:51.433Z,1113.75
2019-02-09T09:55:51.383Z,1445.63
2019-02-09T09:57:44.200Z,1260.00
2019-02-09T09:58:44.125Z,461.25
2019-02-09T10:00:36.922Z,185.63
2019-02-09T10:01:36.895Z,191.25
2019-02-09T10:03:29.622Z,230.63
2019-02-09T10:04:29.564Z,219.38
2019-02-09T10:06:22.355Z,540.00
2019-02-09T10:07:22.282Z,388.13
2019-02-09T10:09:15.075Z,337.50
2019-02-09T10:10:15.004Z,365.63
2019-02-09T10:12:07.780Z,489.38
2019-02-09T10:13:07.707Z,298.13
2019-02-09T10:15:00.477Z,455.63
2019-02-09T10:16:00.416Z,371.25
2019-02-09T10:17:53.206Z,950.63
2019-02-09T10:18:53.168Z,945.00
2019-02-09T10:20:45.985Z,888.75
2019-02-09T10:21:45.870Z,855.00
2019-02-09T10:23:38.604Z,843.75
2019-02-09T10:24:38.545Z,838.13
2019-02-09T10:26:31.386Z,810.00
2019-02-09T10:27:31.275Z,781.88
2019-02-09T10:29:24.094Z,658.13
2019-02-09T10:30:24.043Z,489.38
2019-02-09T10:32:16.820Z,815.63
2019-02-09T10:33:16.803Z,787.50
2019-02-09T10:35:09.538Z,804.38
2019-02-09T10:36:09.509Z,815.63
2019-02-09T10:38:02.276Z,798.75
2019-02-09T10:39:02.189Z,343.13
2019-02-09T10:40:55.089Z,663.75
2019-02-09T10:41:55.025Z,466.88
2019-02-09T10:43:47.803Z,916.88
2019-02-09T10:44:47.831Z,652.50
2019-02-09T10:46:40.539Z,1333.13
2019-02-09T10:47:40.462Z,720.00
2019-02-09T10:49:33.294Z,2131.88
2019-02-09T10:50:33.213Z,3920.63
2019-02-09T10:52:26.075Z,3206.25
2019-02-09T10:53:26.002Z,2576.25
2019-02-09T10:55:18.789Z,866.25
2019-02-09T10:56:18.727Z,2362.50
2019-02-09T10:58:11.516Z,241.88
2019-02-09T10:59:11.439Z,2058.75
2019-02-09T11:01:04.310Z,1726.88
2019-02-09T11:02:04.171Z,1681.88
2019-02-09T11:03:56.960Z,787.50
2019-02-09T11:04:56.876Z,337.50
2019-02-09T11:06:49.655Z,219.38
2019-02-09T11:07:49.586Z,202.50
2019-02-09T11:09:42.408Z,292.50
2019-02-09T11:10:42.316Z,320.63
2019-02-09T11:12:35.743Z,275.63
2019-02-09T11:13:35.635Z,219.38
2019-02-09T11:15:28.390Z,196.88
2019-02-09T11:16:28.352Z,230.63
2019-02-09T11:18:22.067Z,191.25
2019-02-09T11:19:21.964Z,225.00
2019-02-09T11:21:15.004Z,219.38
2019-02-09T11:22:14.837Z,225.00
2019-02-09T11:24:07.634Z,202.50
2019-02-09T11:25:07.596Z,196.88
2019-02-09T11:27:00.409Z,191.25
2019-02-09T11:28:00.281Z,196.88
2019-02-09T11:29:53.126Z,135.00
2019-02-09T11:30:53.056Z,146.25
2019-02-09T11:32:45.851Z,140.63
2019-02-09T11:33:45.773Z,163.13
2019-02-09T11:35:38.574Z,230.63
2019-02-09T11:36:38.500Z,253.13
2019-02-09T11:38:31.307Z,208.13
2019-02-09T11:39:31.245Z,180.00
2019-02-09T11:41:24.075Z,191.25
2019-02-09T11:42:24.378Z,191.25
2019-02-09T11:44:17.678Z,168.75
2019-02-09T11:45:18.258Z,146.25
2019-02-09T11:47:10.423Z,157.50
2019-02-09T11:48:10.333Z,196.88
2019-02-09T11:50:03.374Z,236.25
2019-02-09T11:51:03.325Z,225.00
2019-02-09T11:52:56.102Z,196.88
2019-02-09T11:53:56.089Z,213.75
2019-02-09T11:55:48.783Z,219.38
2019-02-09T11:56:48.723Z,202.50
2019-02-09T11:58:42.096Z,180.00
2019-02-09T11:59:41.436Z,208.13
2019-02-09T12:01:36.034Z,174.38
2019-02-09T12:02:34.372Z,163.13
2019-02-09T12:04:27.159Z,123.75
2019-02-09T12:05:27.041Z,146.25
2019-02-09T12:07:19.867Z,146.25
2019-02-09T12:08:19.908Z,146.25
2019-02-09T12:10:12.598Z,129.38
2019-02-09T12:11:12.501Z,129.38
2019-02-09T12:13:05.271Z,123.75
2019-02-09T12:14:05.199Z,123.75
2019-02-09T12:15:57.961Z,106.88
2019-02-09T12:16:57.897Z,129.38
2019-02-09T12:18:50.662Z,112.50
2019-02-09T12:19:50.583Z,101.25
2019-02-09T12:21:43.390Z,84.38
2019-02-09T12:22:43.301Z,73.13
2019-02-09T12:24:36.079Z,73.13
2019-02-09T12:25:36.018Z,67.50
2019-02-09T12:27:28.802Z,56.25
2019-02-09T12:28:28.720Z,50.63
2019-02-09T12:30:21.488Z,50.63
2019-02-09T12:31:21.428Z,45.00
2019-02-09T12:33:22.564Z,90.00
2019-02-09T12:34:14.165Z,230.63
2019-02-09T12:36:06.919Z,292.50
2019-02-09T12:37:06.942Z,270.00
2019-02-09T12:38:59.688Z,191.25
2019-02-09T12:39:59.723Z,168.75
2019-02-09T12:41:52.403Z,146.25
2019-02-09T12:42:52.309Z,106.88
2019-02-09T12:44:45.103Z,140.63
2019-02-09T12:45:45.048Z,146.25
2019-02-09T12:47:37.881Z,140.63
2019-02-09T12:48:37.790Z,146.25
2019-02-09T12:50:30.562Z,157.50
2019-02-09T12:51:30.492Z,168.75
2019-02-09T12:53:23.382Z,140.63
2019-02-09T12:54:23.187Z,180.00
2019-02-09T12:56:15.979Z,129.38
2019-02-09T12:57:15.915Z,129.38
2019-02-09T12:59:14.818Z,168.75
2019-02-09T13:00:08.646Z,140.63
2019-02-09T13:02:01.453Z,123.75
2019-02-09T13:03:01.369Z,140.63
2019-02-09T13:04:54.153Z,168.75
2019-02-09T13:05:54.081Z,191.25
2019-02-09T13:07:46.940Z,180.00
2019-02-09T13:08:46.842Z,157.50
2019-02-09T13:10:39.654Z,151.88
2019-02-09T13:11:39.563Z,157.50
2019-02-09T13:13:32.381Z,151.88
2019-02-09T13:14:32.289Z,106.88
2019-02-09T13:16:25.084Z,146.25
2019-02-09T13:17:25.013Z,157.50
2019-02-09T13:19:17.787Z,140.63
2019-02-09T13:20:17.725Z,106.88
2019-02-09T13:22:10.485Z,106.88
2019-02-09T13:23:10.424Z,101.25
2019-02-09T13:25:03.185Z,106.88
2019-02-09T13:26:03.124Z,101.25
2019-02-09T13:27:55.939Z,90.00
2019-02-09T13:28:55.850Z,95.63
2019-02-09T13:30:48.728Z,90.00
2019-02-09T13:31:48.598Z,84.38
2019-02-09T13:33:41.554Z,73.13
2019-02-09T13:34:41.437Z,67.50
2019-02-09T13:36:34.235Z,67.50
2019-02-09T13:37:34.212Z,78.75
2019-02-09T13:39:27.065Z,101.25
2019-02-09T13:40:26.980Z,95.63
2019-02-09T13:42:19.774Z,84.38
2019-02-09T13:43:19.693Z,90.00
2019-02-09T13:45:12.564Z,95.63
2019-02-09T13:46:12.519Z,95.63
2019-02-09T13:48:06.611Z,129.38
2019-02-09T13:49:06.422Z,146.25
2019-02-09T13:50:59.196Z,157.50
2019-02-09T13:51:59.160Z,168.75
2019-02-09T13:53:53.187Z,168.75
2019-02-09T13:54:52.605Z,163.13
2019-02-09T13:56:45.364Z,146.25
2019-02-09T13:57:45.408Z,135.00
2019-02-09T13:59:38.544Z,101.25
2019-02-09T14:00:38.024Z,101.25
2019-02-09T14:02:30.887Z,123.75
2019-02-09T14:03:30.843Z,123.75
2019-02-09T14:05:23.884Z,95.63
2019-02-09T14:06:23.813Z,84.38
2019-02-09T14:08:16.618Z,95.63
2019-02-09T14:09:16.586Z,95.63
2019-02-09T14:11:09.313Z,90.00
2019-02-09T14:12:09.297Z,90.00
2019-02-09T14:14:02.059Z,84.38
2019-02-09T14:15:01.954Z,84.38
2019-02-09T14:16:54.772Z,84.38
2019-02-09T14:17:54.698Z,78.75
2019-02-09T14:19:47.479Z,84.38
2019-02-09T14:20:47.398Z,95.63
2019-02-09T14:22:40.186Z,84.38
2019-02-09T14:23:40.098Z,84.38
2019-02-09T14:25:32.916Z,146.25
2019-02-09T14:26:32.890Z,146.25
2019-02-09T14:28:25.622Z,123.75
2019-02-09T14:29:25.538Z,101.25
2019-02-09T14:31:18.443Z,118.13
2019-02-09T14:32:18.364Z,112.50
2019-02-09T14:34:11.133Z,95.63
2019-02-09T14:35:11.027Z,106.88
2019-02-09T14:37:03.968Z,90.00
2019-02-09T14:38:03.908Z,90.00
2019-02-09T14:39:56.698Z,73.13
2019-02-09T14:40:56.615Z,84.38
2019-02-09T14:42:49.404Z,90.00
2019-02-09T14:43:49.324Z,78.75
2019-02-09T14:45:42.166Z,84.38
2019-02-09T14:46:42.017Z,84.38
2019-02-09T14:48:34.823Z,67.50
2019-02-09T14:49:34.750Z,78.75
2019-02-09T14:51:27.508Z,84.38
2019-02-09T14:52:27.437Z,73.13
2019-02-09T14:54:20.275Z,73.13
2019-02-09T14:55:20.137Z,84.38
2019-02-09T14:57:12.905Z,78.75
2019-02-09T14:58:14.294Z,84.38
2019-02-09T15:00:05.632Z,73.13
2019-02-09T15:01:05.769Z,61.88
2019-02-09T15:02:58.546Z,67.50
2019-02-09T15:04:02.843Z,67.50
2019-02-09T15:05:51.103Z,50.63
2019-02-09T15:06:51.008Z,45.00
2019-02-09T15:08:43.807Z,45.00
2019-02-09T15:09:43.738Z,45.00
2019-02-09T15:11:36.532Z,45.00
2019-02-09T15:12:36.496Z,45.00
2019-02-09T15:14:29.341Z,39.38
2019-02-09T15:15:29.262Z,39.38
2019-02-09T15:17:22.054Z,33.75
2019-02-09T15:18:21.962Z,33.75
2019-02-09T15:20:14.748Z,33.75
2019-02-09T15:21:14.664Z,28.13
2019-02-09T15:23:07.481Z,28.13
2019-02-09T15:24:07.387Z,28.13
2019-02-09T15:26:00.189Z,28.13
2019-02-09T15:27:00.107Z,28.13
2019-02-09T15:28:52.883Z,22.50
2019-02-09T15:29:52.808Z,22.50
2019-02-09T15:31:45.769Z,22.50
2019-02-09T15:32:45.671Z,22.50
2019-02-09T15:34:38.450Z,22.50
2019-02-09T15:35:38.450Z,22.50
2019-02-09T15:37:31.156Z,22.50
2019-02-09T15:38:31.050Z,22.50
2019-02-09T15:40:23.850Z,16.88
2019-02-09T15:41:23.837Z,16.88
2019-02-09T15:43:16.634Z,11.25
2019-02-09T15:44:16.604Z,11.25
2019-02-09T15:46:09.368Z,11.25
2019-02-09T15:47:09.286Z,11.25
2019-02-09T15:49:02.126Z,11.25
2019-02-09T15:50:02.142Z,11.25
2019-02-09T15:51:54.811Z,5.63
2019-02-09T15:52:54.747Z,5.63
2019-02-09T15:54:47.659Z,5.63
2019-02-09T15:55:47.633Z,5.63
2019-02-09T15:57:40.336Z,0.00
2019-02-09T15:58:40.254Z,0.00
2019-02-09T16:00:33.057Z,0.00
2019-02-09T16:01:32.974Z,0.00
2019-02-09T16:03:25.751Z,0.00
2019-02-09T16:04:25.670Z,0.00
2019-02-09T16:06:18.444Z,0.00
2019-02-09T16:07:18.377Z,0.00
2019-02-09T16:09:11.144Z,0.00
2019-02-09T16:10:11.069Z,0.00
2019-02-09T16:12:03.839Z,0.00
2019-02-09T16:13:03.771Z,0.00
2019-02-09T16:14:56.567Z,0.00
2019-02-09T16:15:56.485Z,0.00
2019-02-09T16:17:49.236Z,0.00
2019-02-09T16:18:49.172Z,0.00
2019-02-09T16:20:41.969Z,0.00
2019-02-09T16:21:41.889Z,0.00
2019-02-09T16:23:34.694Z,0.00
2019-02-09T16:24:34.616Z,0.00
2019-02-09T16:26:27.379Z,0.00
2019-02-09T16:27:27.317Z,0.00
2019-02-09T16:29:20.090Z,0.00
2019-02-09T16:30:20.015Z,0.00
2019-02-09T16:32:12.818Z,0.00
2019-02-09T16:33:12.747Z,0.00
2019-02-09T16:35:05.526Z,0.00
2019-02-09T16:36:05.442Z,0.00
2019-02-09T16:37:58.215Z,0.00
2019-02-09T16:38:58.171Z,0.00
2019-02-09T16:40:50.894Z,0.00
2019-02-09T16:41:50.817Z,0.00
2019-02-09T16:43:43.592Z,0.00
2019-02-09T16:44:43.507Z,0.00
2019-02-09T16:46:36.271Z,0.00
2019-02-09T16:47:36.203Z,0.00
2019-02-09T16:49:28.989Z,0.00
2019-02-09T16:50:28.913Z,0.00
2019-02-09T16:52:21.666Z,0.00
2019-02-09T16:53:21.601Z,0.00
2019-02-09T16:55:14.378Z,0.00
2019-02-09T16:56:14.295Z,0.00
2019-02-09T16:58:07.061Z,0.00
2019-02-09T16:59:06.992Z,0.00
2019-02-09T17:00:59.758Z,0.00
2019-02-09T17:01:59.671Z,0.00
2019-02-09T17:03:52.441Z,0.00
2019-02-09T17:04:52.376Z,0.00
2019-02-09T17:06:45.117Z,0.00
2019-02-09T17:07:45.061Z,0.00
2019-02-09T17:09:37.854Z,0.00
2019-02-09T17:10:37.743Z,0.00
2019-02-09T17:12:30.513Z,0.00
2019-02-09T17:13:30.447Z,0.00
2019-02-09T17:15:23.439Z,0.00
2019-02-09T17:16:23.141Z,0.00
2019-02-09T17:18:15.910Z,0.00
2019-02-09T17:19:15.856Z,0.00
2019-02-09T17:21:08.595Z,0.00
2019-02-09T17:22:08.518Z,0.00
2019-02-09T17:24:01.301Z,0.00
2019-02-09T17:25:01.260Z,0.00
2019-02-09T17:26:53.974Z,0.00
2019-02-09T17:27:53.906Z,0.00
2019-02-09T17:29:46.703Z,0.00
2019-02-09T17:30:46.672Z,0.00
2019-02-09T17:32:39.457Z,0.00
2019-02-09T17:33:39.302Z,0.00
2019-02-09T17:35:32.095Z,0.00
2019-02-09T17:36:32.023Z,0.00
2019-02-09T17:38:24.816Z,0.00
2019-02-09T17:39:24.737Z,0.00
2019-02-09T17:41:17.533Z,0.00
2019-02-09T17:42:17.459Z,0.00
2019-02-09T17:44:10.243Z,0.00
2019-02-09T17:45:10.189Z,0.00
2019-02-09T17:47:02.939Z,0.00
2019-02-09T17:48:02.877Z,0.00
2019-02-09T17:49:55.659Z,0.00
2019-02-09T17:50:55.569Z,0.00
2019-02-09T17:52:48.351Z,0.00
2019-02-09T17:53:48.293Z,0.00
2019-02-09T17:55:41.201Z,0.00
2019-02-09T17:56:40.992Z,0.00
2019-02-09T17:58:33.786Z,0.00
2019-02-09T17:59:33.855Z,0.00
2019-02-09T18:01:26.524Z,0.00
2019-02-09T18:02:26.425Z,0.00
2019-02-09T18:04:19.255Z,0.00
2019-02-09T18:05:19.142Z,0.00
2019-02-09T18:07:11.926Z,0.00
2019-02-09T18:08:11.839Z,0.00
2019-02-09T18:10:04.620Z,0.00
2019-02-09T18:11:04.528Z,0.00
2019-02-09T18:12:57.344Z,0.00
2019-02-09T18:13:57.359Z,0.00
2019-02-09T18:15:50.067Z,0.00
2019-02-09T18:16:50.039Z,0.00
2019-02-09T18:18:42.747Z,0.00
2019-02-09T18:19:42.687Z,0.00
2019-02-09T18:21:35.500Z,0.00
2019-02-09T18:22:35.426Z,0.00
2019-02-09T18:24:28.212Z,0.00
2019-02-09T18:25:28.115Z,0.00
2019-02-09T18:27:20.895Z,0.00
2019-02-09T18:28:20.830Z,0.00
2019-02-09T18:30:13.648Z,0.00
2019-02-09T18:31:13.565Z,0.00
2019-02-09T18:33:06.389Z,0.00
2019-02-09T18:34:06.309Z,0.00
2019-02-09T18:35:59.106Z,0.00
2019-02-09T18:36:59.048Z,0.00
2019-02-09T18:38:51.816Z,0.00
2019-02-09T18:39:51.746Z,0.00
2019-02-09T18:41:44.537Z,0.00